Pagrindinis puslapis
METAR-TAF:

METAR-TAF

Oro uostai :

Lincas, Austrija

platuma: 48-14N, ilguma: 014-11E, Aukštis: 298 m

Dabartinis oras

Ataskaita buvo paskelbta 19 minutes, ne 09:50 UTC
Vėjas 5 kt iš Rytų, svyruoja nuo Šiaurės Rytų ir Rytų/Pietryčių
Temperatūra 13°C
Drėgmė 47%
Slėgis 1029 hPa
Matomumas 10 km arba daugiau
Mažai debesys ne aukštis 4400 ft
Išsisklaidę debesys ne aukštis 30000 ft

METAR: LOWL 200950Z 08005KT 040V120 9999 FEW044 SCT300 13/02 Q1029 NOSIG

Laikas: 12:09 (10:09 UTC)

Prognozė

Ataskaita buvo paskelbta 4 valandos ir 54 minutes, ne 05:15 UTC
Prognozė galioja nuo 20 metu 06 UTC su 21 metu 06 UTC
Vėjas 5 kt iš Rytų
Matomumas 10 km arba daugiau
nėra debesų žemiau 1500 m ir nėra kamuolinių lietaus debesų

TAF: LOWL 200515Z 2006/2106 08005KT CAVOK TX17/2014Z TN05/2006Z

Orai ataskaitas ir orų prognozės (METAR, TAF).

turimą stotys yra geltonos ir raudonos taškus žemėlapyje.

Perkelti pele per norėdami pamatyti stoties vardą.

Tada spustelėkite, norėdami matyti oro stebėjimo ir prognozės.

Norėdami pakeisti žemėlapį: spustelėkite ant žalios mygtukų su juodo kryžiaus žemyn,; žalią mygtuką su brūkšneliu, jei norite nutolinti; arba žalių rodyklių gretimoms žemėlapius.


METAR-TAF: